PWSweather.com
Personal Weather Stations
Station Observations
J24K28P63
Vysocina, PocatkyCZ 39464

VysocinaPocatkyCZ 39464

Lat: 49.2594238, Lon: 15.2331769

Elevation: 2011

Station Type: Vantage Pro2+

http://meteo-jirkalina.com

High Low Average
Temperature 68.3°F20.2°C 36.3°F2.4°C 52.6°F11.4°C
Dew Point 48.3°F9.1°C 26.4°F-3.1°C 41.2°F5.1°C
Winds 11.6 mph 18.7 kmh Calm Calm 2.0 mph SSE3.2 kmh SSE
Wind Gusts 16.0 mph25.7 kmh -- 3.0 mph4.8 kmh
Humidity 97% 26% 69%
Pressure 30.33 in1027.1 mb 30.08 in1018.6 mb -
Precipitation 0.00 in0.0 mm - -
Hour Temp Dew Point Humidity Winds Wind Gusts Pressure Precip Precip Rate Daily Precip Total
12:00 AM 41.9°F5.5°C 38.6°F3.7°C 88% Calm Calm -- 30.33 in1027.1 mb - 0.00 in0.0 mm 0.00 in0.0 mm
12:10 AM 41.9°F5.5°C 38.9°F3.8°C 89% Calm Calm -- 30.33 in1027.1 mb - 0.00 in0.0 mm 0.00 in0.0 mm
12:20 AM 41.7°F5.4°C 39.0°F3.9°C 90% Calm Calm -- 30.33 in1027.1 mb - 0.00 in0.0 mm 0.00 in0.0 mm
12:30 AM 38.0°F3.3°C 37.0°F2.8°C 96% Calm Calm 2.0 mph3.2 kmh 30.31 in1026.4 mb - 0.00 in0.0 mm 0.00 in0.0 mm
12:40 AM 41.1°F5.1°C 38.7°F3.7°C 91% Calm Calm -- 30.33 in1027.1 mb - 0.00 in0.0 mm 0.00 in0.0 mm
12:50 AM 40.3°F4.6°C 37.9°F3.3°C 91% 1.0 mph NW1.6 kmh NW 2.0 mph3.2 kmh 30.33 in1027.1 mb - 0.00 in0.0 mm 0.00 in0.0 mm
01:00 AM 40.4°F4.7°C 38.3°F3.5°C 92% Calm Calm -- 30.33 in1027.1 mb - 0.00 in0.0 mm 0.00 in0.0 mm
01:10 AM 40.5°F4.7°C 38.1°F3.4°C 91% Calm Calm 1.0 mph1.6 kmh 30.33 in1027.1 mb - 0.00 in0.0 mm 0.00 in0.0 mm
01:20 AM 40.5°F4.7°C 38.1°F3.4°C 91% Calm Calm -- 30.33 in1027.1 mb - 0.00 in0.0 mm 0.00 in0.0 mm
01:30 AM 37.5°F3.1°C 36.5°F2.5°C 96% Calm Calm -- 30.30 in1026.1 mb - 0.00 in0.0 mm 0.00 in0.0 mm
01:40 AM 40.7°F4.8°C 38.3°F3.5°C 91% Calm Calm -- 30.32 in1026.8 mb - 0.00 in0.0 mm 0.00 in0.0 mm
01:50 AM 40.0°F4.4°C 37.6°F3.1°C 91% Calm Calm -- 30.33 in1027.1 mb - 0.00 in0.0 mm 0.00 in0.0 mm
02:00 AM 40.0°F4.4°C 37.9°F3.3°C 92% Calm Calm -- 30.32 in1026.8 mb - 0.00 in0.0 mm 0.00 in0.0 mm
02:10 AM 39.6°F4.2°C 37.5°F3.1°C 92% Calm Calm -- 30.32 in1026.8 mb - 0.00 in0.0 mm 0.00 in0.0 mm
02:20 AM 39.5°F4.2°C 37.6°F3.1°C 93% Calm Calm -- 30.32 in1026.8 mb - 0.00 in0.0 mm 0.00 in0.0 mm
02:30 AM 36.9°F2.7°C 35.9°F2.2°C 96% Calm Calm -- 30.30 in1026.1 mb - 0.00 in0.0 mm 0.00 in0.0 mm
02:40 AM 39.0°F3.9°C 37.1°F2.8°C 93% Calm Calm -- 30.32 in1026.8 mb - 0.00 in0.0 mm 0.00 in0.0 mm
02:50 AM 39.3°F4.1°C 37.7°F3.2°C 94% Calm Calm -- 30.32 in1026.8 mb - 0.00 in0.0 mm 0.00 in0.0 mm
03:00 AM 39.2°F4.0°C 37.6°F3.1°C 94% Calm Calm -- 30.31 in1026.4 mb - 0.00 in0.0 mm 0.00 in0.0 mm
03:10 AM 39.4°F4.1°C 37.8°F3.2°C 94% Calm Calm -- 30.31 in1026.4 mb - 0.00 in0.0 mm 0.00 in0.0 mm
03:20 AM 39.3°F4.1°C 37.7°F3.2°C 94% Calm Calm -- 30.31 in1026.4 mb - 0.00 in0.0 mm 0.00 in0.0 mm
03:30 AM 36.7°F2.6°C 35.9°F2.2°C 97% Calm Calm -- 30.29 in1025.7 mb - 0.00 in0.0 mm 0.00 in0.0 mm
03:40 AM 38.6°F3.7°C 37.3°F2.9°C 95% Calm Calm -- 30.31 in1026.4 mb - 0.00 in0.0 mm 0.00 in0.0 mm
03:50 AM 38.6°F3.7°C 37.3°F2.9°C 95% Calm Calm -- 30.31 in1026.4 mb - 0.00 in0.0 mm 0.00 in0.0 mm
04:00 AM 38.4°F3.6°C 37.1°F2.8°C 95% Calm Calm -- 30.31 in1026.4 mb - 0.00 in0.0 mm 0.00 in0.0 mm
04:10 AM 38.2°F3.4°C 36.9°F2.7°C 95% Calm Calm -- 30.31 in1026.4 mb - 0.00 in0.0 mm 0.00 in0.0 mm
04:20 AM 37.8°F3.2°C 36.5°F2.5°C 95% Calm Calm -- 30.31 in1026.4 mb - 0.00 in0.0 mm 0.00 in0.0 mm
04:30 AM 36.3°F2.4°C 35.5°F1.9°C 97% Calm Calm -- 30.28 in1025.4 mb - 0.00 in0.0 mm 0.00 in0.0 mm
04:40 AM 37.8°F3.2°C 36.8°F2.7°C 96% Calm Calm -- 30.30 in1026.1 mb - 0.00 in0.0 mm 0.00 in0.0 mm
04:50 AM 38.0°F3.3°C 37.0°F2.8°C 96% Calm Calm -- 30.30 in1026.1 mb - 0.00 in0.0 mm 0.00 in0.0 mm
05:00 AM 37.9°F3.3°C 36.9°F2.7°C 96% Calm Calm -- 30.30 in1026.1 mb - 0.00 in0.0 mm 0.00 in0.0 mm
05:10 AM 37.9°F3.3°C 36.8°F2.7°C 96% Calm Calm -- 30.30 in1026.1 mb - 0.00 in0.0 mm 0.00 in0.0 mm
05:20 AM 37.3°F2.9°C 36.2°F2.3°C 96% Calm Calm -- 30.30 in1026.1 mb - 0.00 in0.0 mm 0.00 in0.0 mm
05:30 AM 36.6°F2.6°C 35.8°F2.1°C 97% Calm Calm -- 30.27 in1025.1 mb - 0.00 in0.0 mm 0.00 in0.0 mm
05:40 AM 37.4°F3.0°C 36.4°F2.4°C 96% Calm Calm -- 30.30 in1026.1 mb - 0.00 in0.0 mm 0.00 in0.0 mm
05:50 AM 37.7°F3.2°C 36.7°F2.6°C 96% Calm Calm -- 30.30 in1026.1 mb - 0.00 in0.0 mm 0.00 in0.0 mm
06:00 AM 38.0°F3.3°C 37.0°F2.8°C 96% Calm Calm -- 30.30 in1026.1 mb - 0.00 in0.0 mm 0.00 in0.0 mm
06:10 AM 38.7°F3.7°C 37.9°F3.3°C 97% Calm Calm -- 30.30 in1026.1 mb - 0.00 in0.0 mm 0.00 in0.0 mm
06:20 AM 39.3°F4.1°C 38.5°F3.6°C 97% 1.0 mph NW1.6 kmh NW 2.0 mph3.2 kmh 30.30 in1026.1 mb - 0.00 in0.0 mm 0.00 in0.0 mm
06:30 AM 37.8°F3.2°C 37.1°F2.8°C 97% Calm Calm -- 30.26 in1024.7 mb - 0.00 in0.0 mm 0.00 in0.0 mm
06:40 AM 40.4°F4.7°C 39.6°F4.2°C 97% 1.0 mph NW1.6 kmh NW 2.0 mph3.2 kmh 30.30 in1026.1 mb - 0.00 in0.0 mm 0.00 in0.0 mm
06:50 AM 41.0°F5.0°C 40.2°F4.6°C 97% 1.0 mph NW1.6 kmh NW 3.0 mph4.8 kmh 30.30 in1026.1 mb - 0.00 in0.0 mm 0.00 in0.0 mm
07:00 AM 42.2°F5.7°C 41.4°F5.2°C 97% 3.0 mph E4.8 kmh E 3.0 mph4.8 kmh 30.30 in1026.1 mb - 0.00 in0.0 mm 0.00 in0.0 mm
07:10 AM 43.1°F6.2°C 42.0°F5.6°C 96% 2.0 mph ESE3.2 kmh ESE 3.0 mph4.8 kmh 30.30 in1026.1 mb - 0.00 in0.0 mm 0.00 in0.0 mm
07:20 AM 44.7°F7.1°C 43.1°F6.2°C 94% 2.0 mph ESE3.2 kmh ESE 3.0 mph4.8 kmh 30.31 in1026.4 mb - 0.00 in0.0 mm 0.00 in0.0 mm
07:30 AM 49.6°F9.8°C 33.6°F0.9°C 54% 3.3 mph SE5.3 kmh SE 6.0 mph9.7 kmh 30.26 in1024.7 mb - 0.00 in0.0 mm 0.00 in0.0 mm
07:40 AM 45.9°F7.7°C 42.8°F6.0°C 89% 1.0 mph ESE1.6 kmh ESE 3.0 mph4.8 kmh 30.31 in1026.4 mb - 0.00 in0.0 mm 0.00 in0.0 mm
07:50 AM 46.7°F8.2°C 42.5°F5.8°C 85% 3.0 mph E4.8 kmh E 3.0 mph4.8 kmh 30.31 in1026.4 mb - 0.00 in0.0 mm 0.00 in0.0 mm
08:00 AM 47.0°F8.3°C 42.5°F5.8°C 84% 2.0 mph E3.2 kmh E 3.0 mph4.8 kmh 30.31 in1026.4 mb - 0.00 in0.0 mm 0.00 in0.0 mm
08:10 AM 48.0°F8.9°C 43.4°F6.3°C 84% 5.0 mph E8.0 kmh E 6.0 mph9.7 kmh 30.31 in1026.4 mb - 0.00 in0.0 mm 0.00 in0.0 mm
08:20 AM 48.1°F8.9°C 42.9°F6.1°C 82% 2.0 mph ENE3.2 kmh ENE 3.0 mph4.8 kmh 30.31 in1026.4 mb - 0.00 in0.0 mm 0.00 in0.0 mm
08:30 AM 54.8°F12.7°C 29.7°F-1.3°C 38% 4.2 mph ESE6.8 kmh ESE 7.0 mph11.3 kmh 30.27 in1025.1 mb - 0.00 in0.0 mm 0.00 in0.0 mm
08:40 AM 49.8°F9.9°C 44.2°F6.8°C 81% 3.0 mph E4.8 kmh E 3.0 mph4.8 kmh 30.31 in1026.4 mb - 0.00 in0.0 mm 0.00 in0.0 mm
08:50 AM 51.1°F10.6°C 43.8°F6.6°C 76% 2.0 mph ESE3.2 kmh ESE 3.0 mph4.8 kmh 30.31 in1026.4 mb - 0.00 in0.0 mm 0.00 in0.0 mm
09:00 AM 51.5°F10.8°C 43.9°F6.6°C 75% 1.0 mph ESE1.6 kmh ESE 3.0 mph4.8 kmh 30.31 in1026.4 mb - 0.00 in0.0 mm 0.00 in0.0 mm
09:10 AM 52.0°F11.1°C 44.3°F6.8°C 75% 3.0 mph E4.8 kmh E 3.0 mph4.8 kmh 30.31 in1026.4 mb - 0.00 in0.0 mm 0.00 in0.0 mm
09:20 AM 52.1°F11.2°C 44.8°F7.1°C 76% 6.0 mph ENE9.7 kmh ENE 8.0 mph12.9 kmh 30.30 in1026.1 mb - 0.00 in0.0 mm 0.00 in0.0 mm
09:30 AM 56.0°F13.3°C 28.7°F-1.8°C 35% 5.7 mph SE9.2 kmh SE 8.0 mph12.9 kmh 30.26 in1024.7 mb - 0.00 in0.0 mm 0.00 in0.0 mm
09:40 AM 53.5°F11.9°C 45.1°F7.3°C 73% 2.0 mph E3.2 kmh E 3.0 mph4.8 kmh 30.30 in1026.1 mb - 0.00 in0.0 mm 0.00 in0.0 mm
09:50 AM 54.1°F12.3°C 44.5°F6.9°C 70% 1.0 mph ENE1.6 kmh ENE 3.0 mph4.8 kmh 30.30 in1026.1 mb - 0.00 in0.0 mm 0.00 in0.0 mm
10:00 AM 55.0°F12.8°C 45.1°F7.3°C 69% 2.0 mph ENE3.2 kmh ENE 5.0 mph8.0 kmh 30.30 in1026.1 mb - 0.00 in0.0 mm 0.00 in0.0 mm
10:10 AM 57.7°F14.3°C 44.3°F6.8°C 61% 1.0 mph E1.6 kmh E 2.0 mph3.2 kmh 30.29 in1025.7 mb - 0.00 in0.0 mm 0.00 in0.0 mm
10:20 AM 58.9°F14.9°C 45.0°F7.2°C 60% 2.0 mph E3.2 kmh E 3.0 mph4.8 kmh 30.29 in1025.7 mb - 0.00 in0.0 mm 0.00 in0.0 mm
10:30 AM 57.6°F14.2°C 26.4°F-3.1°C 30% 3.8 mph SSE6.1 kmh SSE 7.0 mph11.3 kmh 30.26 in1024.7 mb - 0.00 in0.0 mm 0.00 in0.0 mm
10:40 AM 60.1°F15.6°C 45.7°F7.6°C 59% 3.0 mph ENE4.8 kmh ENE 3.0 mph4.8 kmh 30.28 in1025.4 mb - 0.00 in0.0 mm 0.00 in0.0 mm
10:50 AM 61.3°F16.3°C 45.5°F7.5°C 56% 3.0 mph NE4.8 kmh NE 8.0 mph12.9 kmh 30.28 in1025.4 mb - 0.00 in0.0 mm 0.00 in0.0 mm
11:00 AM 61.6°F16.4°C 45.3°F7.4°C 55% 1.0 mph NE1.6 kmh NE 1.0 mph1.6 kmh 30.28 in1025.4 mb - 0.00 in0.0 mm 0.00 in0.0 mm
11:10 AM 62.4°F16.9°C 45.0°F7.2°C 53% Calm Calm 1.0 mph1.6 kmh 30.27 in1025.1 mb - 0.00 in0.0 mm 0.00 in0.0 mm
11:20 AM 62.7°F17.1°C 45.3°F7.4°C 53% 2.0 mph ESE3.2 kmh ESE 3.0 mph4.8 kmh 30.27 in1025.1 mb - 0.00 in0.0 mm 0.00 in0.0 mm
11:30 AM 59.9°F15.5°C 26.7°F-2.9°C 28% 2.4 mph E3.9 kmh E 7.0 mph11.3 kmh 30.24 in1024.0 mb - 0.00 in0.0 mm 0.00 in0.0 mm
11:40 AM 63.3°F17.4°C 45.4°F7.4°C 52% 3.0 mph ENE4.8 kmh ENE 6.0 mph9.7 kmh 30.27 in1025.1 mb - 0.00 in0.0 mm 0.00 in0.0 mm
11:50 AM 63.3°F17.4°C 44.9°F7.2°C 51% 2.0 mph ENE3.2 kmh ENE 3.0 mph4.8 kmh 30.26 in1024.7 mb - 0.00 in0.0 mm 0.00 in0.0 mm
12:00 PM 64.2°F17.9°C 45.2°F7.3°C 50% 1.0 mph ESE1.6 kmh ESE 6.0 mph9.7 kmh 30.26 in1024.7 mb - 0.00 in0.0 mm 0.00 in0.0 mm
12:10 PM 64.6°F18.1°C 46.0°F7.8°C 51% Calm Calm 1.0 mph1.6 kmh 30.25 in1024.4 mb - 0.00 in0.0 mm 0.00 in0.0 mm
12:20 PM 65.6°F18.7°C 46.4°F8.0°C 50% 2.0 mph SE3.2 kmh SE 3.0 mph4.8 kmh 30.25 in1024.4 mb - 0.00 in0.0 mm 0.00 in0.0 mm
12:30 PM 62.0°F16.7°C 28.5°F-1.9°C 28% 9.7 mph ESE15.6 kmh ESE 12.0 mph19.3 kmh 30.23 in1023.7 mb - 0.00 in0.0 mm 0.00 in0.0 mm
12:40 PM 65.3°F18.5°C 46.1°F7.8°C 50% 3.0 mph E4.8 kmh E 5.0 mph8.0 kmh 30.24 in1024.0 mb - 0.00 in0.0 mm 0.00 in0.0 mm
12:50 PM 64.7°F18.2°C 45.6°F7.6°C 50% 1.0 mph ESE1.6 kmh ESE 3.0 mph4.8 kmh 30.24 in1024.0 mb - 0.00 in0.0 mm 0.00 in0.0 mm
01:00 PM 65.4°F18.6°C 47.3°F8.5°C 52% 1.0 mph E1.6 kmh E 2.0 mph3.2 kmh 30.24 in1024.0 mb - 0.00 in0.0 mm 0.00 in0.0 mm
01:10 PM 66.3°F19.1°C 46.0°F7.8°C 48% 1.0 mph SE1.6 kmh SE 3.0 mph4.8 kmh 30.23 in1023.7 mb - 0.00 in0.0 mm 0.00 in0.0 mm
01:20 PM 66.6°F19.2°C 46.3°F7.9°C 48% 2.0 mph SE3.2 kmh SE 3.0 mph4.8 kmh 30.23 in1023.7 mb - 0.00 in0.0 mm 0.00 in0.0 mm
01:30 PM 62.7°F17.1°C 27.3°F-2.6°C 26% 4.4 mph SE7.1 kmh SE 7.0 mph11.3 kmh 30.21 in1023.0 mb - 0.00 in0.0 mm 0.00 in0.0 mm
01:40 PM 67.2°F19.6°C 47.9°F8.8°C 50% 2.0 mph ESE3.2 kmh ESE 6.0 mph9.7 kmh 30.22 in1023.4 mb - 0.00 in0.0 mm 0.00 in0.0 mm
01:50 PM 67.2°F19.6°C 46.3°F7.9°C 47% 1.0 mph ESE1.6 kmh ESE 2.0 mph3.2 kmh 30.22 in1023.4 mb - 0.00 in0.0 mm 0.00 in0.0 mm
02:00 PM 68.3°F20.2°C 47.3°F8.5°C 47% 1.0 mph SSE1.6 kmh SSE 3.0 mph4.8 kmh 30.21 in1023.0 mb - 0.00 in0.0 mm 0.00 in0.0 mm
02:10 PM 67.6°F19.8°C 46.7°F8.2°C 47% 5.0 mph E8.0 kmh E 8.0 mph12.9 kmh 30.20 in1022.7 mb - 0.00 in0.0 mm 0.00 in0.0 mm
02:20 PM 67.2°F19.6°C 45.7°F7.6°C 46% 1.0 mph E1.6 kmh E 3.0 mph4.8 kmh 30.20 in1022.7 mb - 0.00 in0.0 mm 0.00 in0.0 mm
02:30 PM 63.2°F17.3°C 28.6°F-1.9°C 27% 5.6 mph E9.0 kmh E 7.0 mph11.3 kmh 30.20 in1022.7 mb - 0.00 in0.0 mm 0.00 in0.0 mm
02:40 PM 67.8°F19.9°C 47.4°F8.6°C 48% 1.0 mph E1.6 kmh E 2.0 mph3.2 kmh 30.20 in1022.7 mb - 0.00 in0.0 mm 0.00 in0.0 mm
02:50 PM 68.1°F20.1°C 47.1°F8.4°C 47% 5.0 mph NE8.0 kmh NE 9.0 mph14.5 kmh 30.19 in1022.4 mb - 0.00 in0.0 mm 0.00 in0.0 mm
03:00 PM 67.9°F19.9°C 46.9°F8.3°C 47% 3.0 mph E4.8 kmh E 3.0 mph4.8 kmh 30.19 in1022.4 mb - 0.00 in0.0 mm 0.00 in0.0 mm
03:10 PM 68.0°F20.0°C 47.0°F8.3°C 47% 3.0 mph ENE4.8 kmh ENE 3.0 mph4.8 kmh 30.19 in1022.4 mb - 0.00 in0.0 mm 0.00 in0.0 mm
03:20 PM 68.2°F20.1°C 47.2°F8.4°C 47% 5.0 mph E8.0 kmh E 5.0 mph8.0 kmh 30.18 in1022.0 mb - 0.00 in0.0 mm 0.00 in0.0 mm
03:30 PM 63.4°F17.4°C 29.7°F-1.3°C 28% 2.6 mph ESE4.2 kmh ESE 7.0 mph11.3 kmh 30.18 in1022.0 mb - 0.00 in0.0 mm 0.00 in0.0 mm
03:40 PM 67.8°F19.9°C 47.4°F8.6°C 48% 5.0 mph NE8.0 kmh NE 6.0 mph9.7 kmh 30.18 in1022.0 mb - 0.00 in0.0 mm 0.00 in0.0 mm
03:50 PM 68.0°F20.0°C 47.6°F8.7°C 48% 2.0 mph NE3.2 kmh NE 3.0 mph4.8 kmh 30.17 in1021.7 mb - 0.00 in0.0 mm 0.00 in0.0 mm
04:00 PM 68.1°F20.1°C 47.7°F8.7°C 48% 3.0 mph NE4.8 kmh NE 7.0 mph11.3 kmh 30.17 in1021.7 mb - 0.00 in0.0 mm 0.00 in0.0 mm
04:10 PM 67.9°F19.9°C 47.5°F8.6°C 48% 3.0 mph ENE4.8 kmh ENE 7.0 mph11.3 kmh 30.17 in1021.7 mb - 0.00 in0.0 mm 0.00 in0.0 mm
04:20 PM 67.7°F19.8°C 47.3°F8.5°C 48% 3.0 mph E4.8 kmh E 8.0 mph12.9 kmh 30.16 in1021.3 mb - 0.00 in0.0 mm 0.00 in0.0 mm
04:30 PM 62.6°F17.0°C 29.0°F-1.7°C 28% 6.7 mph E10.8 kmh E 9.0 mph14.5 kmh 30.16 in1021.3 mb - 0.00 in0.0 mm 0.00 in0.0 mm
04:40 PM 67.0°F19.4°C 47.8°F8.8°C 50% 3.0 mph ENE4.8 kmh ENE 6.0 mph9.7 kmh 30.16 in1021.3 mb - 0.00 in0.0 mm 0.00 in0.0 mm
04:50 PM 66.7°F19.3°C 46.9°F8.3°C 49% 3.0 mph ENE4.8 kmh ENE 5.0 mph8.0 kmh 30.16 in1021.3 mb - 0.00 in0.0 mm 0.00 in0.0 mm
05:00 PM 66.4°F19.1°C 47.2°F8.4°C 50% 1.0 mph E1.6 kmh E 3.0 mph4.8 kmh 30.16 in1021.3 mb - 0.00 in0.0 mm 0.00 in0.0 mm
05:10 PM 65.8°F18.8°C 47.2°F8.4°C 51% 1.0 mph E1.6 kmh E 2.0 mph3.2 kmh 30.16 in1021.3 mb - 0.00 in0.0 mm 0.00 in0.0 mm
05:20 PM 65.4°F18.6°C 47.3°F8.5°C 52% 2.0 mph E3.2 kmh E 3.0 mph4.8 kmh 30.15 in1021.0 mb - 0.00 in0.0 mm 0.00 in0.0 mm
05:30 PM 59.3°F15.2°C 30.9°F-0.6°C 34% 4.0 mph ESE6.4 kmh ESE 7.0 mph11.3 kmh 30.15 in1021.0 mb - 0.00 in0.0 mm 0.00 in0.0 mm
05:40 PM 63.3°F17.4°C 48.3°F9.1°C 58% 1.0 mph E1.6 kmh E 2.0 mph3.2 kmh 30.15 in1021.0 mb - 0.00 in0.0 mm 0.00 in0.0 mm
05:50 PM 61.4°F16.3°C 47.9°F8.8°C 61% Calm Calm -- 30.15 in1021.0 mb - 0.00 in0.0 mm 0.00 in0.0 mm
06:00 PM 60.2°F15.7°C 48.0°F8.9°C 64% Calm Calm -- 30.15 in1021.0 mb - 0.00 in0.0 mm 0.00 in0.0 mm
06:10 PM 59.3°F15.2°C 47.9°F8.8°C 66% Calm Calm -- 30.14 in1020.7 mb - 0.00 in0.0 mm 0.00 in0.0 mm
06:20 PM 58.6°F14.8°C 48.0°F8.9°C 68% 1.0 mph E1.6 kmh E 2.0 mph3.2 kmh 30.14 in1020.7 mb - 0.00 in0.0 mm 0.00 in0.0 mm
06:30 PM 55.2°F12.9°C 31.9°F-0.1°C 41% 1.3 mph E2.1 kmh E 6.0 mph9.7 kmh 30.15 in1021.0 mb - 0.00 in0.0 mm 0.00 in0.0 mm
06:40 PM 57.7°F14.3°C 47.2°F8.4°C 68% 1.0 mph E1.6 kmh E 2.0 mph3.2 kmh 30.14 in1020.7 mb - 0.00 in0.0 mm 0.00 in0.0 mm
06:50 PM 58.4°F14.7°C 46.7°F8.2°C 65% 1.0 mph E1.6 kmh E 2.0 mph3.2 kmh 30.14 in1020.7 mb - 0.00 in0.0 mm 0.00 in0.0 mm
07:00 PM 57.9°F14.4°C 47.0°F8.3°C 67% 2.0 mph E3.2 kmh E 3.0 mph4.8 kmh 30.14 in1020.7 mb - 0.00 in0.0 mm 0.00 in0.0 mm
07:10 PM 58.2°F14.6°C 46.5°F8.1°C 65% 2.0 mph E3.2 kmh E 3.0 mph4.8 kmh 30.14 in1020.7 mb - 0.00 in0.0 mm 0.00 in0.0 mm
07:20 PM 58.4°F14.7°C 46.3°F7.9°C 64% 1.0 mph E1.6 kmh E 2.0 mph3.2 kmh 30.14 in1020.7 mb - 0.00 in0.0 mm 0.00 in0.0 mm
07:30 PM 54.2°F12.3°C 31.6°F-0.2°C 42% 4.7 mph ESE7.6 kmh ESE 7.0 mph11.3 kmh 30.14 in1020.7 mb - 0.00 in0.0 mm 0.00 in0.0 mm
07:40 PM 58.0°F14.4°C 46.3°F7.9°C 65% 3.0 mph E4.8 kmh E 5.0 mph8.0 kmh 30.14 in1020.7 mb - 0.00 in0.0 mm 0.00 in0.0 mm
07:50 PM 57.8°F14.3°C 46.5°F8.1°C 66% 2.0 mph E3.2 kmh E 3.0 mph4.8 kmh 30.14 in1020.7 mb - 0.00 in0.0 mm 0.00 in0.0 mm
08:00 PM 57.1°F13.9°C 46.2°F7.9°C 67% 2.0 mph E3.2 kmh E 3.0 mph4.8 kmh 30.14 in1020.7 mb - 0.00 in0.0 mm 0.00 in0.0 mm
08:10 PM 56.8°F13.8°C 46.3°F7.9°C 68% 2.0 mph E3.2 kmh E 3.0 mph4.8 kmh 30.14 in1020.7 mb - 0.00 in0.0 mm 0.00 in0.0 mm
08:20 PM 56.3°F13.5°C 46.3°F7.9°C 69% Calm Calm 2.0 mph3.2 kmh 30.14 in1020.7 mb - 0.00 in0.0 mm 0.00 in0.0 mm
08:30 PM 53.8°F12.1°C 31.2°F-0.4°C 42% 5.9 mph ESE9.5 kmh ESE 10.0 mph16.1 kmh 30.12 in1020.0 mb - 0.00 in0.0 mm 0.00 in0.0 mm
08:40 PM 54.9°F12.7°C 45.7°F7.6°C 71% Calm Calm 1.0 mph1.6 kmh 30.14 in1020.7 mb - 0.00 in0.0 mm 0.00 in0.0 mm
08:50 PM 53.6°F12.0°C 45.2°F7.3°C 73% Calm Calm 2.0 mph3.2 kmh 30.14 in1020.7 mb - 0.00 in0.0 mm 0.00 in0.0 mm
09:00 PM 53.5°F11.9°C 30.4°F-0.9°C 41% 7.4 mph SSE11.9 kmh SSE 15.0 mph24.1 kmh 30.12 in1020.0 mb - 0.00 in0.0 mm 0.00 in0.0 mm
09:10 PM 53.9°F12.2°C 45.8°F7.7°C 74% 1.0 mph E1.6 kmh E 3.0 mph4.8 kmh 30.13 in1020.3 mb - 0.00 in0.0 mm 0.00 in0.0 mm
09:20 PM 54.0°F12.2°C 45.5°F7.5°C 73% Calm Calm 2.0 mph3.2 kmh 30.13 in1020.3 mb - 0.00 in0.0 mm 0.00 in0.0 mm
09:30 PM 53.5°F11.9°C 29.7°F-1.3°C 40% 6.0 mph ESE9.7 kmh ESE 8.0 mph12.9 kmh 30.11 in1019.6 mb - 0.00 in0.0 mm 0.00 in0.0 mm
09:40 PM 53.5°F11.9°C 45.4°F7.4°C 74% 1.0 mph E1.6 kmh E 2.0 mph3.2 kmh 30.14 in1020.7 mb - 0.00 in0.0 mm 0.00 in0.0 mm
09:50 PM 53.2°F11.8°C 45.5°F7.5°C 75% Calm Calm 2.0 mph3.2 kmh 30.14 in1020.7 mb - 0.00 in0.0 mm 0.00 in0.0 mm
10:00 PM 53.0°F11.7°C 45.3°F7.4°C 75% 1.0 mph E1.6 kmh E 3.0 mph4.8 kmh 30.13 in1020.3 mb - 0.00 in0.0 mm 0.00 in0.0 mm
10:10 PM 52.7°F11.5°C 45.3°F7.4°C 76% 1.0 mph E1.6 kmh E 2.0 mph3.2 kmh 30.13 in1020.3 mb - 0.00 in0.0 mm 0.00 in0.0 mm
10:20 PM 52.4°F11.3°C 45.4°F7.4°C 77% 1.0 mph E1.6 kmh E 2.0 mph3.2 kmh 30.13 in1020.3 mb - 0.00 in0.0 mm 0.00 in0.0 mm
10:30 PM 52.9°F11.6°C 30.4°F-0.9°C 42% 5.6 mph SSE9.0 kmh SSE 10.0 mph16.1 kmh 30.10 in1019.3 mb - 0.00 in0.0 mm 0.00 in0.0 mm
10:40 PM 51.7°F10.9°C 45.1°F7.3°C 78% Calm Calm -- 30.13 in1020.3 mb - 0.00 in0.0 mm 0.00 in0.0 mm
10:50 PM 51.0°F10.6°C 44.8°F7.1°C 79% Calm Calm 1.0 mph1.6 kmh 30.13 in1020.3 mb - 0.00 in0.0 mm 0.00 in0.0 mm
11:00 PM 52.5°F11.4°C 30.6°F-0.8°C 43% 7.1 mph ESE11.4 kmh ESE 12.0 mph19.3 kmh 30.09 in1019.0 mb - 0.00 in0.0 mm 0.00 in0.0 mm
11:10 PM 49.4°F9.7°C 44.1°F6.7°C 82% Calm Calm -- 30.13 in1020.3 mb - 0.00 in0.0 mm 0.00 in0.0 mm
11:20 PM 48.6°F9.2°C 43.7°F6.5°C 83% Calm Calm -- 30.13 in1020.3 mb - 0.00 in0.0 mm 0.00 in0.0 mm
11:30 PM 52.3°F11.3°C 29.9°F-1.2°C 42% 11.6 mph ESE18.7 kmh ESE 16.0 mph25.7 kmh 30.08 in1018.6 mb - 0.00 in0.0 mm 0.00 in0.0 mm
11:40 PM 47.2°F8.4°C 43.2°F6.2°C 86% Calm Calm 1.0 mph1.6 kmh 30.12 in1020.0 mb - 0.00 in0.0 mm 0.00 in0.0 mm
11:50 PM 47.0°F8.3°C 43.3°F6.3°C 87% Calm Calm 1.0 mph1.6 kmh 30.12 in1020.0 mb - 0.00 in0.0 mm 0.00 in0.0 mm